createdAt,value
2019-05-19T00:01:07.055Z,99614.81
2019-05-19T00:03:40.449Z,99614.33
2019-05-19T00:06:13.919Z,99614.86
2019-05-19T00:08:47.291Z,99611.39
2019-05-19T00:11:20.706Z,99606.23
2019-05-19T00:13:54.098Z,99610.19
2019-05-19T00:16:27.519Z,99609.84
2019-05-19T00:19:00.910Z,99603.92
2019-05-19T00:21:34.320Z,99602.61
2019-05-19T00:24:07.781Z,99599.63
2019-05-19T00:26:41.190Z,99597.97
2019-05-19T00:29:14.597Z,99601.02
2019-05-19T00:31:48.021Z,99596.81
2019-05-19T00:34:21.467Z,99594.38
2019-05-19T00:36:54.865Z,99586.66
2019-05-19T00:39:28.261Z,99585.80
2019-05-19T00:42:01.657Z,99588.16
2019-05-19T00:44:35.071Z,99583.22
2019-05-19T00:47:08.569Z,99586.10
2019-05-19T00:49:41.989Z,99577.41
2019-05-19T00:52:15.552Z,99575.16
2019-05-19T00:54:49.227Z,99569.90
2019-05-19T00:57:24.187Z,99575.70
2019-05-19T00:59:59.182Z,99568.58
2019-05-19T01:02:32.596Z,99565.30
2019-05-19T01:05:07.344Z,99559.09
2019-05-19T01:07:40.850Z,99556.88
2019-05-19T01:10:14.577Z,99556.35
2019-05-19T01:12:47.995Z,99551.27
2019-05-19T01:15:21.585Z,99552.59
2019-05-19T01:17:55.012Z,99554.95
2019-05-19T01:20:28.483Z,99553.39
2019-05-19T01:23:02.647Z,99546.16
2019-05-19T01:25:36.195Z,99548.27
2019-05-19T01:28:09.612Z,99541.53
2019-05-19T01:30:43.019Z,99536.92
2019-05-19T01:33:17.493Z,99540.47
2019-05-19T01:35:50.912Z,99539.47
2019-05-19T01:38:24.310Z,99537.80
2019-05-19T01:40:57.710Z,99541.13
2019-05-19T01:43:31.149Z,99541.20
2019-05-19T01:46:04.782Z,99543.17
2019-05-19T01:48:38.368Z,99546.28
2019-05-19T01:51:11.756Z,99547.53
2019-05-19T01:53:45.188Z,99544.62
2019-05-19T01:56:18.583Z,99542.33
2019-05-19T01:58:52.025Z,99547.37
2019-05-19T02:01:25.430Z,99546.60
2019-05-19T02:03:58.852Z,99535.22
2019-05-19T02:06:32.249Z,99537.19
2019-05-19T02:09:07.119Z,99542.39
2019-05-19T02:11:40.551Z,99545.11
2019-05-19T02:14:14.054Z,99543.96
2019-05-19T02:16:47.447Z,99547.61
2019-05-19T02:19:20.935Z,99546.81
2019-05-19T02:21:55.951Z,99553.61
2019-05-19T02:24:29.418Z,99552.77
2019-05-19T02:27:02.833Z,99559.86
2019-05-19T02:29:36.242Z,99565.63
2019-05-19T02:32:09.650Z,99557.39
2019-05-19T02:34:43.061Z,99553.06
2019-05-19T02:37:17.261Z,99551.27
2019-05-19T02:39:50.765Z,99555.53
2019-05-19T02:42:27.354Z,99555.91
2019-05-19T02:45:03.527Z,99549.46
2019-05-19T02:47:38.579Z,99552.83
2019-05-19T02:50:12.836Z,99551.92
2019-05-19T02:52:49.272Z,99552.56
2019-05-19T02:55:23.355Z,99555.53
2019-05-19T02:57:57.675Z,99545.23
2019-05-19T03:00:39.811Z,99544.27
2019-05-19T03:03:13.244Z,99544.95
2019-05-19T03:05:46.677Z,99545.69
2019-05-19T03:08:20.121Z,99543.98
2019-05-19T03:10:53.547Z,99544.78
2019-05-19T03:13:26.945Z,99544.78
2019-05-19T03:16:00.375Z,99539.93
2019-05-19T03:18:33.813Z,99549.08
2019-05-19T03:21:11.035Z,99555.02
2019-05-19T03:23:42.477Z,99552.32
2019-05-19T03:26:15.869Z,99565.46
2019-05-19T03:28:49.284Z,99564.76
2019-05-19T03:31:24.362Z,99567.91
2019-05-19T03:33:58.523Z,99564.47
2019-05-19T03:36:31.956Z,99578.12
2019-05-19T03:39:07.108Z,99575.56
2019-05-19T03:41:40.851Z,99577.33
2019-05-19T03:44:14.239Z,99582.77
2019-05-19T03:46:47.657Z,99584.02
2019-05-19T03:49:21.069Z,99581.17
2019-05-19T03:51:54.513Z,99584.21
2019-05-19T03:54:27.938Z,99581.71
2019-05-19T03:57:01.357Z,99580.68
2019-05-19T03:59:34.759Z,99586.29
2019-05-19T04:02:08.184Z,99586.58
2019-05-19T04:04:41.579Z,99587.20
2019-05-19T04:07:15.011Z,99594.09
2019-05-19T04:09:48.672Z,99590.03
2019-05-19T04:12:22.096Z,99590.45
2019-05-19T04:14:55.500Z,99587.20
2019-05-19T04:17:28.918Z,99584.38
2019-05-19T04:20:02.435Z,99590.55
2019-05-19T04:22:35.862Z,99587.92
2019-05-19T04:25:09.273Z,99591.80
2019-05-19T04:27:42.728Z,99591.11
2019-05-19T04:30:16.922Z,99600.15
2019-05-19T04:32:50.320Z,99595.69
2019-05-19T04:35:23.757Z,99588.97
2019-05-19T04:37:57.307Z,99592.53
2019-05-19T04:40:30.741Z,99589.66
2019-05-19T04:43:04.473Z,99599.22
2019-05-19T04:45:37.892Z,99594.40
2019-05-19T04:48:11.303Z,99594.09
2019-05-19T04:50:44.698Z,99590.83
2019-05-19T04:53:18.132Z,99595.39
2019-05-19T04:55:51.592Z,99592.70
2019-05-19T04:58:24.971Z,99593.30
2019-05-19T05:00:58.399Z,99591.73
2019-05-19T05:03:31.802Z,99593.09
2019-05-19T05:06:05.240Z,99595.45
2019-05-19T05:08:38.647Z,99597.03
2019-05-19T05:11:12.085Z,99600.22
2019-05-19T05:13:45.486Z,99609.19
2019-05-19T05:16:18.905Z,99600.42
2019-05-19T05:18:52.389Z,99602.60
2019-05-19T05:21:25.828Z,99598.31
2019-05-19T05:23:59.233Z,99599.73
2019-05-19T05:26:32.702Z,99598.52
2019-05-19T05:29:06.119Z,99604.57
2019-05-19T05:31:39.544Z,99608.23
2019-05-19T05:34:12.957Z,99611.03
2019-05-19T05:36:46.450Z,99608.23
2019-05-19T05:39:19.868Z,99607.60
2019-05-19T05:41:53.286Z,99600.64
2019-05-19T05:44:26.691Z,99602.45
2019-05-19T05:47:00.137Z,99602.64
2019-05-19T05:49:33.558Z,99596.47
2019-05-19T05:52:07.012Z,99599.88
2019-05-19T05:54:40.396Z,99599.88
2019-05-19T05:57:13.825Z,99602.80
2019-05-19T05:59:47.202Z,99599.70
2019-05-19T06:02:20.636Z,99600.09
2019-05-19T06:04:54.035Z,99600.75
2019-05-19T06:07:27.468Z,99602.27
2019-05-19T06:10:00.934Z,99601.06
2019-05-19T06:12:34.361Z,99602.26
2019-05-19T06:15:07.917Z,99595.83
2019-05-19T06:17:41.354Z,99602.42
2019-05-19T06:20:15.493Z,99602.42
2019-05-19T06:22:56.524Z,99593.73
2019-05-19T06:25:24.161Z,99598.09
2019-05-19T06:27:57.627Z,99596.11
2019-05-19T06:30:31.039Z,99593.24
2019-05-19T06:33:04.728Z,99595.94
2019-05-19T06:35:38.109Z,99595.68
2019-05-19T06:38:11.558Z,99597.68
2019-05-19T06:40:44.965Z,99597.98
2019-05-19T06:43:18.402Z,99598.78
2019-05-19T06:45:51.818Z,99602.36
2019-05-19T06:48:25.596Z,99610.73
2019-05-19T06:50:59.008Z,99610.73
2019-05-19T06:53:32.426Z,99606.17
2019-05-19T06:56:05.824Z,99607.05
2019-05-19T06:58:39.259Z,99603.17
2019-05-19T07:01:12.656Z,99574.09
2019-05-19T07:03:46.162Z,99595.47
2019-05-19T07:06:19.570Z,99594.32
2019-05-19T07:08:53.002Z,99598.52
2019-05-19T07:11:26.489Z,99600.76
2019-05-19T07:14:02.873Z,99599.89
2019-05-19T07:16:35.050Z,99594.45
2019-05-19T07:19:08.473Z,99608.34
2019-05-19T07:21:41.894Z,99588.54
2019-05-19T07:24:15.332Z,99590.23
2019-05-19T07:26:48.737Z,99588.71
2019-05-19T07:29:22.152Z,99590.90
2019-05-19T07:31:57.977Z,99591.78
2019-05-19T07:34:30.741Z,99586.27
2019-05-19T07:37:04.234Z,99591.48
2019-05-19T07:39:37.638Z,99586.19
2019-05-19T07:42:11.056Z,99586.21
2019-05-19T07:44:45.369Z,99586.08
2019-05-19T07:47:18.854Z,99588.94
2019-05-19T07:49:53.062Z,99591.23
2019-05-19T07:52:26.482Z,99589.02
2019-05-19T07:54:59.922Z,99583.27
2019-05-19T07:57:33.333Z,99581.59
2019-05-19T08:00:08.779Z,99583.94
2019-05-19T08:02:42.304Z,99580.45
2019-05-19T08:05:15.920Z,99581.42
2019-05-19T08:07:49.352Z,99575.52
2019-05-19T08:10:22.763Z,99571.34
2019-05-19T08:12:56.191Z,99563.64
2019-05-19T08:15:29.616Z,99570.55
2019-05-19T08:18:03.100Z,99568.87
2019-05-19T08:20:36.510Z,99570.25
2019-05-19T08:23:10.816Z,99567.59
2019-05-19T08:25:44.266Z,99560.88
2019-05-19T08:28:17.702Z,99570.28
2019-05-19T08:30:51.138Z,99563.77
2019-05-19T08:33:24.589Z,99570.16
2019-05-19T08:35:58.020Z,99570.56
2019-05-19T08:38:31.532Z,99573.33
2019-05-19T08:41:05.068Z,99568.09
2019-05-19T08:43:38.442Z,99562.67
2019-05-19T08:46:11.923Z,99561.90
2019-05-19T08:48:45.417Z,99558.20
2019-05-19T08:51:18.844Z,99561.63
2019-05-19T08:53:52.220Z,99560.63
2019-05-19T08:56:25.660Z,99560.05
2019-05-19T08:58:59.091Z,99549.92
2019-05-19T09:01:32.538Z,99554.20
2019-05-19T09:04:06.023Z,99556.56
2019-05-19T09:06:39.486Z,99552.45
2019-05-19T09:09:13.039Z,99548.70
2019-05-19T09:11:48.000Z,99551.61
2019-05-19T09:14:21.559Z,99543.02
2019-05-19T09:16:54.956Z,99544.59
2019-05-19T09:19:28.387Z,99538.38
2019-05-19T09:22:01.791Z,99538.68
2019-05-19T09:24:37.241Z,99538.68
2019-05-19T09:27:10.360Z,99530.06
2019-05-19T09:29:43.763Z,99533.41
2019-05-19T09:32:17.273Z,99534.41
2019-05-19T09:34:50.666Z,99528.22
2019-05-19T09:37:24.078Z,99532.38
2019-05-19T09:39:57.507Z,99529.42
2019-05-19T09:42:30.946Z,99532.25
2019-05-19T09:45:09.180Z,99534.00
2019-05-19T09:47:43.453Z,99526.47
2019-05-19T09:50:17.200Z,99526.66
2019-05-19T09:52:50.601Z,99512.06
2019-05-19T09:55:23.999Z,99512.32
2019-05-19T09:57:57.491Z,99507.04
2019-05-19T10:00:31.320Z,99508.69
2019-05-19T10:03:04.863Z,99508.65
2019-05-19T10:05:38.412Z,99512.48
2019-05-19T10:08:13.562Z,99508.31
2019-05-19T10:11:05.184Z,99508.75
2019-05-19T10:13:38.608Z,99498.59
2019-05-19T10:16:12.027Z,99496.70
2019-05-19T10:18:45.745Z,99496.38
2019-05-19T10:21:19.188Z,99498.44
2019-05-19T10:23:52.593Z,99498.13
2019-05-19T10:26:25.989Z,99496.67
2019-05-19T10:28:59.424Z,99491.06
2019-05-19T10:31:32.891Z,99496.77
2019-05-19T10:34:06.315Z,99489.13
2019-05-19T10:36:39.759Z,99495.76
2019-05-19T10:39:13.179Z,99490.59
2019-05-19T10:41:46.581Z,99489.45
2019-05-19T10:44:20.076Z,99485.75
2019-05-19T10:46:53.598Z,99477.01
2019-05-19T10:49:27.053Z,99484.69
2019-05-19T10:52:00.472Z,99484.45
2019-05-19T10:54:33.869Z,99478.81
2019-05-19T10:57:07.286Z,99483.05
2019-05-19T10:59:40.751Z,99477.02
2019-05-19T11:02:14.161Z,99474.38
2019-05-19T11:04:47.588Z,99473.05
2019-05-19T11:07:21.017Z,99476.88
2019-05-19T11:09:54.415Z,99476.93
2019-05-19T11:12:27.910Z,99477.69
2019-05-19T11:15:01.319Z,99464.83
2019-05-19T11:17:34.821Z,99458.88
2019-05-19T11:20:08.294Z,99465.32
2019-05-19T11:22:41.702Z,99458.16
2019-05-19T11:25:15.358Z,99463.89
2019-05-19T11:27:48.796Z,99462.72
2019-05-19T11:30:22.225Z,99463.38
2019-05-19T11:32:55.637Z,99458.12
2019-05-19T11:35:30.080Z,99465.52
2019-05-19T11:38:03.522Z,99461.43
2019-05-19T11:40:36.915Z,99458.78
2019-05-19T11:43:10.314Z,99452.27
2019-05-19T11:45:43.705Z,99455.70
2019-05-19T11:48:17.180Z,99457.57
2019-05-19T11:50:50.577Z,99457.26
2019-05-19T11:53:24.033Z,99456.38
2019-05-19T11:56:06.322Z,99455.13
2019-05-19T11:58:32.674Z,99458.80
2019-05-19T12:01:06.138Z,99459.39
2019-05-19T12:03:39.580Z,99447.50
2019-05-19T12:06:12.979Z,99439.23
2019-05-19T12:08:46.414Z,99438.58
2019-05-19T12:11:19.815Z,99433.58
2019-05-19T12:13:53.220Z,99437.49
2019-05-19T12:16:26.615Z,99443.80
2019-05-19T12:19:00.067Z,99429.65
2019-05-19T12:21:33.445Z,99438.73
2019-05-19T12:24:06.860Z,99435.18
2019-05-19T12:26:40.266Z,99439.16
2019-05-19T12:29:13.661Z,99423.82
2019-05-19T12:31:47.083Z,99427.05
2019-05-19T12:34:20.510Z,99425.34
2019-05-19T12:36:53.914Z,99421.21
2019-05-19T12:39:27.382Z,99417.59
2019-05-19T12:42:00.793Z,99414.05
2019-05-19T12:44:34.219Z,99426.62
2019-05-19T12:47:07.686Z,99414.04
2019-05-19T12:49:41.107Z,99409.89
2019-05-19T12:52:14.518Z,99407.08
2019-05-19T12:54:47.949Z,99407.64
2019-05-19T12:57:21.522Z,99407.53
2019-05-19T12:59:55.232Z,99401.02
2019-05-19T13:02:28.625Z,99403.48
2019-05-19T13:05:05.434Z,99400.41
2019-05-19T13:07:37.155Z,99394.14
2019-05-19T13:10:11.114Z,99389.91
2019-05-19T13:12:44.505Z,99386.57
2019-05-19T13:15:18.059Z,99381.38
2019-05-19T13:17:51.937Z,99382.23
2019-05-19T13:20:25.420Z,99381.13
2019-05-19T13:22:58.873Z,99379.25
2019-05-19T13:25:32.278Z,99380.00
2019-05-19T13:28:05.674Z,99374.67
2019-05-19T13:30:39.101Z,99376.24
2019-05-19T13:33:12.493Z,99368.78
2019-05-19T13:35:45.898Z,99365.27
2019-05-19T13:38:19.285Z,99352.75
2019-05-19T13:40:52.717Z,99343.27
2019-05-19T13:43:27.270Z,99345.47
2019-05-19T13:46:01.282Z,99344.86
2019-05-19T13:48:34.674Z,99340.88
2019-05-19T13:51:08.970Z,99336.00
2019-05-19T13:53:42.369Z,99342.30
2019-05-19T13:56:15.788Z,99342.80
2019-05-19T13:58:49.183Z,99331.59
2019-05-19T14:01:28.695Z,99334.97
2019-05-19T14:03:57.732Z,99338.67
2019-05-19T14:06:31.174Z,99327.75
2019-05-19T14:09:06.202Z,99326.94
2019-05-19T14:11:39.707Z,99330.88
2019-05-19T14:14:13.132Z,99324.95
2019-05-19T14:16:46.535Z,99321.48
2019-05-19T14:19:19.939Z,99317.62
2019-05-19T14:21:53.372Z,99309.66
2019-05-19T14:24:26.793Z,99312.44
2019-05-19T14:27:00.273Z,99310.99
2019-05-19T14:29:33.737Z,99306.19
2019-05-19T14:32:07.163Z,99315.80
2019-05-19T14:34:40.613Z,99311.15
2019-05-19T14:37:14.030Z,99307.12
2019-05-19T14:39:47.450Z,99305.77
2019-05-19T14:42:38.740Z,99303.30
2019-05-19T14:45:12.753Z,99300.80
2019-05-19T14:47:46.185Z,99299.22
2019-05-19T14:50:19.842Z,99300.05
2019-05-19T14:52:53.255Z,99303.81
2019-05-19T14:55:26.652Z,99303.14
2019-05-19T14:58:00.146Z,99307.87
2019-05-19T15:00:33.559Z,99303.08
2019-05-19T15:03:07.007Z,99305.45
2019-05-19T15:05:40.429Z,99293.57
2019-05-19T15:08:13.870Z,99296.06
2019-05-19T15:10:47.353Z,99300.34
2019-05-19T15:13:20.795Z,99296.83
2019-05-19T15:15:57.823Z,99285.05
2019-05-19T15:18:29.378Z,99299.94
2019-05-19T15:21:02.849Z,99287.88
2019-05-19T15:23:36.255Z,99292.45
2019-05-19T15:26:09.766Z,99290.52
2019-05-19T15:28:43.198Z,99286.90
2019-05-19T15:31:16.625Z,99278.05
2019-05-19T15:33:50.037Z,99273.18
2019-05-19T15:36:23.464Z,99267.97
2019-05-19T15:38:56.856Z,99257.42
2019-05-19T15:41:30.313Z,99257.92
2019-05-19T15:44:03.870Z,99256.48
2019-05-19T15:46:37.298Z,99260.06
2019-05-19T15:49:10.740Z,99263.73
2019-05-19T15:51:59.384Z,99253.97
2019-05-19T15:54:19.333Z,99255.47
2019-05-19T15:56:52.925Z,99254.17
2019-05-19T15:59:26.352Z,99257.31
2019-05-19T16:01:59.755Z,99261.06
2019-05-19T16:04:33.258Z,99265.80
2019-05-19T16:07:06.690Z,99269.25
2019-05-19T16:09:40.124Z,99274.30
2019-05-19T16:12:13.530Z,99272.10
2019-05-19T16:14:46.937Z,99269.11
2019-05-19T16:17:20.392Z,99273.00
2019-05-19T16:19:53.824Z,99269.19
2019-05-19T16:22:27.311Z,99271.65
2019-05-19T16:25:00.719Z,99271.02
2019-05-19T16:27:34.176Z,99267.09
2019-05-19T16:30:08.825Z,99266.55
2019-05-19T16:32:42.303Z,99255.39
2019-05-19T16:35:15.855Z,99258.39
2019-05-19T16:37:49.310Z,99258.09
2019-05-19T16:40:22.774Z,99258.20
2019-05-19T16:42:56.193Z,99261.54
2019-05-19T16:45:29.581Z,99264.47
2019-05-19T16:48:03.047Z,99265.97
2019-05-19T16:50:36.397Z,99266.98
2019-05-19T16:53:09.855Z,99268.05
2019-05-19T16:55:43.236Z,99268.08
2019-05-19T16:58:21.254Z,99272.02
2019-05-19T17:00:51.839Z,99276.09
2019-05-19T17:03:25.294Z,99273.92
2019-05-19T17:05:58.702Z,99268.10
2019-05-19T17:08:32.349Z,99273.91
2019-05-19T17:11:17.647Z,99272.62
2019-05-19T17:13:40.908Z,99275.77
2019-05-19T17:16:14.303Z,99273.98
2019-05-19T17:18:47.771Z,99278.98
2019-05-19T17:21:21.227Z,99278.98
2019-05-19T17:23:54.867Z,99272.16
2019-05-19T17:26:28.311Z,99269.79
2019-05-19T17:29:01.700Z,99280.58
2019-05-19T17:31:35.104Z,99273.88
2019-05-19T17:34:08.583Z,99280.16
2019-05-19T17:36:41.953Z,99274.63
2019-05-19T17:39:15.422Z,99274.67
2019-05-19T17:41:48.794Z,99272.41
2019-05-19T17:44:22.229Z,99280.38
2019-05-19T17:46:55.615Z,99299.30
2019-05-19T17:49:29.073Z,99303.45
2019-05-19T17:52:02.609Z,99300.96
2019-05-19T17:54:36.086Z,99309.50
2019-05-19T17:57:09.761Z,99315.71
2019-05-19T17:59:46.347Z,99321.77
2019-05-19T18:02:19.759Z,99327.70
2019-05-19T18:04:53.375Z,99327.55
2019-05-19T18:07:26.765Z,99330.69
2019-05-19T18:10:00.197Z,99334.94
2019-05-19T18:12:34.493Z,99338.72
2019-05-19T18:15:09.123Z,99335.06
2019-05-19T18:17:42.526Z,99333.26
2019-05-19T18:20:23.826Z,99329.52
2019-05-19T18:22:51.257Z,99334.59
2019-05-19T18:25:24.700Z,99343.67
2019-05-19T18:27:58.093Z,99343.67
2019-05-19T18:30:31.638Z,99342.56
2019-05-19T18:33:05.039Z,99346.39
2019-05-19T18:35:38.454Z,99347.73
2019-05-19T18:38:11.842Z,99350.14
2019-05-19T18:40:45.268Z,99347.28
2019-05-19T18:43:18.743Z,99353.02
2019-05-19T18:45:52.182Z,99356.00
2019-05-19T18:48:25.687Z,99363.60
2019-05-19T18:50:59.098Z,99368.15
2019-05-19T18:53:32.551Z,99370.39
2019-05-19T18:56:05.950Z,99375.67
2019-05-19T18:58:39.371Z,99385.91
2019-05-19T19:01:12.843Z,99393.59
2019-05-19T19:03:46.315Z,99391.16
2019-05-19T19:06:19.752Z,99386.11
2019-05-19T19:08:53.157Z,99380.41
2019-05-19T19:11:26.581Z,99372.00
2019-05-19T19:13:59.988Z,99376.14
2019-05-19T19:16:33.429Z,99370.95
2019-05-19T19:19:06.837Z,99376.45
2019-05-19T19:21:40.275Z,99376.05
2019-05-19T19:24:13.679Z,99375.22
2019-05-19T19:26:47.112Z,99378.34
2019-05-19T19:29:20.575Z,99373.36
2019-05-19T19:31:53.950Z,99366.33
2019-05-19T19:34:27.354Z,99372.91
2019-05-19T19:37:00.804Z,99375.48
2019-05-19T19:39:34.234Z,99379.19
2019-05-19T19:42:07.705Z,99376.53
2019-05-19T19:44:41.194Z,99371.58
2019-05-19T19:47:14.911Z,99377.19
2019-05-19T19:49:48.295Z,99380.24
2019-05-19T19:52:21.735Z,99371.71
2019-05-19T19:54:55.206Z,99377.77
2019-05-19T19:57:28.712Z,99377.77
2019-05-19T20:00:02.204Z,99387.12
2019-05-19T20:02:35.694Z,99387.00
2019-05-19T20:05:09.227Z,99388.56
2019-05-19T20:07:42.692Z,99391.41
2019-05-19T20:10:16.134Z,99394.31
2019-05-19T20:12:49.535Z,99392.83
2019-05-19T20:15:24.548Z,99402.92
2019-05-19T20:17:58.139Z,99399.83
2019-05-19T20:20:31.570Z,99391.23
2019-05-19T20:23:05.040Z,99395.48
2019-05-19T20:25:38.524Z,99391.97
2019-05-19T20:28:11.951Z,99409.60
2019-05-19T20:30:45.536Z,99404.30
2019-05-19T20:33:18.946Z,99403.08
2019-05-19T20:35:52.439Z,99412.19
2019-05-19T20:38:25.849Z,99410.69
2019-05-19T20:40:59.243Z,99410.14
2019-05-19T20:43:32.684Z,99414.02
2019-05-19T20:46:06.114Z,99414.02
2019-05-19T20:48:39.494Z,99413.08
2019-05-19T20:51:12.921Z,99413.08
2019-05-19T20:53:46.349Z,99413.57
2019-05-19T20:56:19.773Z,99414.49
2019-05-19T20:58:53.209Z,99413.93
2019-05-19T21:01:26.682Z,99413.93
2019-05-19T21:04:00.070Z,99417.99
2019-05-19T21:06:34.233Z,99416.39
2019-05-19T21:09:07.735Z,99415.31
2019-05-19T21:11:41.179Z,99418.59
2019-05-19T21:14:14.613Z,99418.02
2019-05-19T21:16:48.071Z,99421.14
2019-05-19T21:19:21.481Z,99419.15
2019-05-19T21:21:54.889Z,99413.91
2019-05-19T21:24:28.300Z,99425.73
2019-05-19T21:27:01.728Z,99419.83
2019-05-19T21:29:35.112Z,99421.35
2019-05-19T21:32:08.539Z,99424.77
2019-05-19T21:34:41.932Z,99430.89
2019-05-19T21:37:15.347Z,99426.39
2019-05-19T21:39:48.748Z,99427.22
2019-05-19T21:42:22.172Z,99427.22
2019-05-19T21:44:55.549Z,99434.86
2019-05-19T21:47:28.966Z,99434.09
2019-05-19T21:50:02.669Z,99440.05
2019-05-19T21:52:36.061Z,99442.53
2019-05-19T21:55:09.541Z,99444.52
2019-05-19T21:57:42.983Z,99448.15
2019-05-19T22:00:17.744Z,99444.42
2019-05-19T22:02:51.168Z,99444.77
2019-05-19T22:05:24.578Z,99446.03
2019-05-19T22:08:05.593Z,99445.38
2019-05-19T22:10:39.082Z,99453.59
2019-05-19T22:13:12.522Z,99455.77
2019-05-19T22:15:45.937Z,99457.30
2019-05-19T22:18:19.341Z,99462.42
2019-05-19T22:20:53.356Z,99461.66
2019-05-19T22:23:26.747Z,99461.89
2019-05-19T22:26:00.152Z,99463.27
2019-05-19T22:28:33.613Z,99470.11
2019-05-19T22:31:07.034Z,99462.23
2019-05-19T22:33:40.455Z,99466.20
2019-05-19T22:36:13.842Z,99466.67
2019-05-19T22:38:47.269Z,99469.48
2019-05-19T22:41:20.657Z,99472.41
2019-05-19T22:43:54.070Z,99470.97
2019-05-19T22:46:27.463Z,99471.39
2019-05-19T22:49:00.866Z,99469.13
2019-05-19T22:51:34.272Z,99469.45
2019-05-19T22:54:07.691Z,99464.86
2019-05-19T22:56:41.085Z,99466.28
2019-05-19T22:59:19.729Z,99454.08
2019-05-19T23:01:52.132Z,99450.60
2019-05-19T23:04:24.787Z,99447.19
2019-05-19T23:06:58.196Z,99440.03
2019-05-19T23:09:31.620Z,99435.44
2019-05-19T23:12:05.150Z,99434.44
2019-05-19T23:14:38.529Z,99432.44
2019-05-19T23:17:11.906Z,99433.44
2019-05-19T23:19:45.314Z,99438.00
2019-05-19T23:22:18.710Z,99437.55
2019-05-19T23:24:52.187Z,99433.48
2019-05-19T23:27:25.824Z,99430.57
2019-05-19T23:29:59.245Z,99428.35
2019-05-19T23:32:33.536Z,99432.45
2019-05-19T23:35:07.896Z,99427.89
2019-05-19T23:37:41.295Z,99426.25
2019-05-19T23:40:14.943Z,99432.77
2019-05-19T23:42:48.699Z,99439.36
2019-05-19T23:45:22.117Z,99438.58
2019-05-19T23:47:55.531Z,99446.13
2019-05-19T23:50:28.944Z,99449.05
2019-05-19T23:53:02.342Z,99454.31
2019-05-19T23:55:35.755Z,99453.28
2019-05-19T23:58:09.263Z,99454.34
